Time,TemperatureF,DewpointF,PressureIn,WindDirection,WindDirectionDegrees,WindSpeedMPH,WindSpeedGustMPH,Humidity,HourlyPrecipIn,Conditions,Clouds,dailyrainin,SoftwareType,DateUTC
2013-10-09 00:00:00,58.4,47.4,30.29,ESE,113,0.0,0.0,67,0.00,,,0.00,WUHU216HW,2013-10-09 04:00:00,
2013-10-09 00:01:00,58.2,47.3,30.29,ESE,113,0.0,0.0,67,0.00,,,0.00,WUHU216HW,2013-10-09 04:01:00,
2013-10-09 00:06:00,58.1,47.1,30.29,ESE,113,0.0,0.0,67,0.00,,,0.00,WUHU216HW,2013-10-09 04:06:00,
2013-10-09 00:11:00,57.9,46.9,30.29,ESE,113,0.0,0.0,67,0.00,,,0.00,WUHU216HW,2013-10-09 04:11:00,
2013-10-09 00:16:00,57.7,46.8,30.29,ESE,113,0.0,0.0,67,0.00,,,0.00,WUHU216HW,2013-10-09 04:16:00,
2013-10-09 00:21:00,57.3,46.4,30.29,ESE,113,0.0,0.0,67,0.00,,,0.00,WUHU216HW,2013-10-09 04:21:00,
2013-10-09 00:26:00,57.0,46.5,30.29,ESE,113,0.0,0.0,68,0.00,,,0.00,WUHU216HW,2013-10-09 04:26:00,
2013-10-09 00:31:00,56.8,46.3,30.29,ESE,113,0.8,0.8,68,0.00,,,0.00,WUHU216HW,2013-10-09 04:31:00,
2013-10-09 00:36:00,56.3,46.2,30.29,ESE,113,0.0,0.8,69,0.00,,,0.00,WUHU216HW,2013-10-09 04:36:00,
2013-10-09 00:41:00,56.1,46.0,30.29,ESE,113,0.0,0.6,69,0.00,,,0.00,WUHU216HW,2013-10-09 04:41:00,
2013-10-09 00:46:00,55.9,46.3,30.29,ESE,113,0.0,0.6,70,0.00,,,0.00,WUHU216HW,2013-10-09 04:46:00,
2013-10-09 00:51:00,55.7,46.1,30.29,ESE,113,0.0,0.8,70,0.00,,,0.00,WUHU216HW,2013-10-09 04:51:00,
2013-10-09 00:56:00,55.5,46.0,30.29,ESE,113,0.0,0.8,70,0.00,,,0.00,WUHU216HW,2013-10-09 04:56:00,
2013-10-09 01:01:00,55.4,46.2,30.29,ESE,113,0.0,0.0,71,0.00,,,0.00,WUHU216HW,2013-10-09 05:01:00,
2013-10-09 01:06:00,55.2,46.0,30.29,ESE,113,0.0,0.0,71,0.00,,,0.00,WUHU216HW,2013-10-09 05:06:00,
2013-10-09 01:11:00,55.2,46.0,30.29,ESE,113,0.0,0.0,71,0.00,,,0.00,WUHU216HW,2013-10-09 05:11:00,
2013-10-09 01:16:00,55.0,45.8,30.29,ESE,113,0.0,0.0,71,0.00,,,0.00,WUHU216HW,2013-10-09 05:16:00,
2013-10-09 01:21:00,55.0,46.1,30.29,SE,135,0.0,0.0,72,0.00,,,0.00,WUHU216HW,2013-10-09 05:21:00,
2013-10-09 01:26:00,54.6,45.8,30.29,ESE,113,0.0,0.0,72,0.00,,,0.00,WUHU216HW,2013-10-09 05:26:00,
2013-10-09 01:31:00,54.3,45.4,30.29,ESE,113,0.0,0.0,72,0.00,,,0.00,WUHU216HW,2013-10-09 05:31:00,
2013-10-09 01:36:00,54.1,45.6,30.29,ESE,113,0.0,1.5,73,0.00,,,0.00,WUHU216HW,2013-10-09 05:36:00,
2013-10-09 01:41:00,54.1,45.6,30.29,ESE,113,0.0,1.5,73,0.00,,,0.00,WUHU216HW,2013-10-09 05:41:00,
2013-10-09 01:46:00,53.9,45.4,30.29,ESE,113,0.0,0.0,73,0.00,,,0.00,WUHU216HW,2013-10-09 05:46:00,
2013-10-09 01:51:00,53.7,45.3,30.29,ESE,113,0.0,0.0,73,0.00,,,0.00,WUHU216HW,2013-10-09 05:51:00,
2013-10-09 01:56:00,53.7,45.3,30.29,ESE,113,0.0,0.0,73,0.00,,,0.00,WUHU216HW,2013-10-09 05:56:00,
2013-10-09 02:01:00,53.6,45.5,30.29,ESE,113,0.0,0.0,74,0.00,,,0.00,WUHU216HW,2013-10-09 06:01:00,
2013-10-09 02:06:00,53.2,45.1,30.29,ESE,113,0.0,0.0,74,0.00,,,0.00,WUHU216HW,2013-10-09 06:06:00,
2013-10-09 02:11:00,53.2,45.1,30.29,ESE,113,0.0,0.0,74,0.00,,,0.00,WUHU216HW,2013-10-09 06:11:00,
2013-10-09 02:16:00,52.8,45.1,30.29,ESE,113,0.0,0.0,75,0.00,,,0.00,WUHU216HW,2013-10-09 06:16:00,
2013-10-09 02:21:00,52.8,45.1,30.29,ESE,113,0.0,0.0,75,0.00,,,0.00,WUHU216HW,2013-10-09 06:21:00,
2013-10-09 02:26:00,52.8,45.1,30.30,ESE,113,0.0,0.0,75,0.00,,,0.00,WUHU216HW,2013-10-09 06:26:00,
2013-10-09 02:31:00,52.8,45.1,30.30,SE,135,0.0,0.0,75,0.00,,,0.00,WUHU216HW,2013-10-09 06:31:00,
2013-10-09 02:36:00,52.8,45.1,30.29,ESE,113,0.0,0.0,75,0.00,,,0.00,WUHU216HW,2013-10-09 06:36:00,
2013-10-09 02:41:00,52.8,45.1,30.29,ESE,113,0.0,0.0,75,0.00,,,0.00,WUHU216HW,2013-10-09 06:41:00,
2013-10-09 02:46:00,52.8,45.1,30.30,ESE,113,0.0,0.0,75,0.00,,,0.00,WUHU216HW,2013-10-09 06:46:00,
2013-10-09 02:51:00,52.7,44.9,30.30,ESE,113,0.0,0.0,75,0.00,,,0.00,WUHU216HW,2013-10-09 06:51:00,
2013-10-09 02:56:00,52.7,44.9,30.30,ESE,113,2.2,2.2,75,0.00,,,0.00,WUHU216HW,2013-10-09 06:56:00,
2013-10-09 03:01:00,52.7,44.9,30.30,ESE,113,0.0,2.2,75,0.00,,,0.00,WUHU216HW,2013-10-09 07:01:00,
2013-10-09 03:06:00,52.7,44.9,30.29,SE,135,0.0,2.2,74,0.00,,,0.00,WUHU216HW,2013-10-09 07:06:00,
2013-10-09 07:15:00,46.9,40.7,30.34,ESE,113,0.0,0.0,79,0.00,,,0.00,WUHU216HW,2013-10-09 11:15:00,
2013-10-09 07:20:00,46.9,40.7,30.34,ESE,113,0.0,0.0,79,0.00,,,0.00,WUHU216HW,2013-10-09 11:20:00,
2013-10-09 07:25:00,46.9,40.7,30.34,ESE,113,0.0,0.0,79,0.00,,,0.00,WUHU216HW,2013-10-09 11:25:00,
2013-10-09 07:30:00,46.9,40.7,30.34,ESE,113,0.0,0.0,79,0.00,,,0.00,WUHU216HW,2013-10-09 11:30:00,
2013-10-09 07:35:00,46.7,40.6,30.34,ESE,113,0.0,0.0,79,0.00,,,0.00,WUHU216HW,2013-10-09 11:35:00,
2013-10-09 07:40:00,46.5,40.8,30.35,ESE,113,0.0,0.0,80,0.00,,,0.00,WUHU216HW,2013-10-09 11:40:00,
2013-10-09 07:45:00,46.4,40.6,30.35,ESE,113,0.0,0.0,80,0.00,,,0.00,WUHU216HW,2013-10-09 11:45:00,
2013-10-09 07:50:00,46.2,40.4,30.35,ESE,113,0.0,0.0,80,0.00,,,0.00,WUHU216HW,2013-10-09 11:50:00,
2013-10-09 07:55:00,46.0,40.2,30.35,ESE,113,0.0,0.0,80,0.00,,,0.00,WUHU216HW,2013-10-09 11:55:00,
2013-10-09 08:00:00,45.6,39.9,30.35,ESE,113,0.0,0.0,80,0.00,,,0.00,WUHU216HW,2013-10-09 12:00:00,
2013-10-09 08:03:00,45.6,39.9,30.35,ESE,113,0.0,0.0,80,0.00,,,0.00,WUHU216HW,2013-10-09 12:03:00,
2013-10-09 08:08:00,45.5,39.7,30.36,ESE,113,0.0,0.0,80,0.00,,,0.00,WUHU216HW,2013-10-09 12:08:00,
2013-10-09 08:13:00,45.5,39.7,30.36,ESE,113,0.0,0.0,80,0.00,,,0.00,WUHU216HW,2013-10-09 12:13:00,
2013-10-09 08:18:00,45.3,39.8,30.35,ESE,113,0.0,0.0,81,0.00,,,0.00,WUHU216HW,2013-10-09 12:18:00,
2013-10-09 08:23:00,45.5,40.0,30.36,ESE,113,0.0,0.0,81,0.00,,,0.00,WUHU216HW,2013-10-09 12:23:00,
2013-10-09 08:28:00,45.6,40.2,30.36,ESE,113,0.0,0.0,81,0.00,,,0.00,WUHU216HW,2013-10-09 12:28:00,
2013-10-09 08:33:00,45.8,40.4,30.36,ESE,113,0.0,0.0,81,0.00,,,0.00,WUHU216HW,2013-10-09 12:33:00,
2013-10-09 08:38:00,46.0,40.5,30.36,ESE,113,0.0,0.0,81,0.00,,,0.00,WUHU216HW,2013-10-09 12:38:00,
2013-10-09 08:43:00,46.2,40.7,30.36,ESE,113,0.0,0.0,81,0.00,,,0.00,WUHU216HW,2013-10-09 12:43:00,
2013-10-09 08:48:00,46.2,40.7,30.36,ESE,113,0.0,0.0,81,0.00,,,0.00,WUHU216HW,2013-10-09 12:48:00,
2013-10-09 08:53:00,46.5,41.4,30.36,ESE,113,0.0,0.0,82,0.00,,,0.00,WUHU216HW,2013-10-09 12:53:00,
2013-10-09 08:58:00,46.7,41.5,30.36,ESE,113,0.0,0.0,82,0.00,,,0.00,WUHU216HW,2013-10-09 12:58:00,
2013-10-09 09:03:00,46.9,41.7,30.36,ESE,113,0.0,0.0,82,0.00,,,0.00,WUHU216HW,2013-10-09 13:03:00,
2013-10-09 09:08:00,47.3,42.0,30.36,ESE,113,0.0,0.0,82,0.00,,,0.00,WUHU216HW,2013-10-09 13:08:00,
2013-10-09 09:13:00,47.6,42.4,30.36,ESE,113,0.0,0.0,82,0.00,,,0.00,WUHU216HW,2013-10-09 13:13:00,
2013-10-09 09:18:00,48.0,42.7,30.36,ESE,113,0.0,0.0,82,0.00,,,0.00,WUHU216HW,2013-10-09 13:18:00,
2013-10-09 09:23:00,48.7,43.4,30.37,ESE,113,0.0,0.0,82,0.00,,,0.00,WUHU216HW,2013-10-09 13:23:00,
2013-10-09 09:28:00,49.1,43.7,30.36,ESE,113,0.0,0.0,82,0.00,,,0.00,WUHU216HW,2013-10-09 13:28:00,
2013-10-09 09:33:00,49.6,44.0,30.36,ESE,113,0.0,0.0,81,0.00,,,0.00,WUHU216HW,2013-10-09 13:33:00,
2013-10-09 09:38:00,50.3,44.7,30.37,ESE,113,0.0,0.0,81,0.00,,,0.00,WUHU216HW,2013-10-09 13:38:00,
2013-10-09 09:43:00,51.0,45.4,30.37,ESE,113,0.0,0.0,81,0.00,,,0.00,WUHU216HW,2013-10-09 13:43:00,
2013-10-09 09:57:00,53.7,47.1,30.37,ESE,113,0.0,0.0,78,0.00,,,0.00,WUHU216HW,2013-10-09 13:57:00,
2013-10-09 10:02:00,54.1,47.4,30.37,ESE,113,2.2,2.2,78,0.00,,,0.00,WUHU216HW,2013-10-09 14:02:00,
2013-10-09 10:07:00,55.2,47.7,30.37,SE,135,0.8,2.2,76,0.00,,,0.00,WUHU216HW,2013-10-09 14:07:00,
2013-10-09 10:12:00,55.7,48.2,30.37,ESE,113,1.5,2.2,76,0.00,,,0.00,WUHU216HW,2013-10-09 14:12:00,
2013-10-09 10:17:00,56.8,48.9,30.37,ESE,113,2.9,2.9,75,0.00,,,0.00,WUHU216HW,2013-10-09 14:17:00,
2013-10-09 10:22:00,57.3,49.1,30.37,ESE,113,2.0,2.9,74,0.00,,,0.00,WUHU216HW,2013-10-09 14:22:00,
2013-10-09 10:27:00,58.6,50.0,30.37,ESE,113,0.0,2.9,73,0.00,,,0.00,WUHU216HW,2013-10-09 14:27:00,
2013-10-09 10:32:00,59.1,50.1,30.37,ESE,113,0.0,0.0,72,0.00,,,0.00,WUHU216HW,2013-10-09 14:32:00,
2013-10-09 10:37:00,59.9,50.1,30.36,SE,135,0.0,0.0,70,0.00,,,0.00,WUHU216HW,2013-10-09 14:37:00,
2013-10-09 10:42:00,60.6,49.6,30.36,ESE,113,3.3,3.3,67,0.00,,,0.00,WUHU216HW,2013-10-09 14:42:00,
2013-10-09 10:47:00,60.9,50.0,30.36,SE,135,1.5,3.3,67,0.00,,,0.00,WUHU216HW,2013-10-09 14:47:00,
2013-10-09 10:52:00,61.5,50.0,30.36,South,180,3.1,3.3,66,0.00,,,0.00,WUHU216HW,2013-10-09 14:52:00,
2013-10-09 10:57:00,62.2,50.3,30.37,ESE,113,0.0,3.1,65,0.00,,,0.00,WUHU216HW,2013-10-09 14:57:00,
2013-10-09 11:02:00,62.4,49.6,30.37,ESE,113,1.5,3.3,63,0.00,,,0.00,WUHU216HW,2013-10-09 15:02:00,
2013-10-09 11:07:00,62.7,49.9,30.36,SE,135,2.9,3.3,63,0.00,,,0.00,WUHU216HW,2013-10-09 15:07:00,
2013-10-09 11:12:00,63.1,49.8,30.36,SSW,203,3.1,3.1,62,0.00,,,0.00,WUHU216HW,2013-10-09 15:12:00,
2013-10-09 11:17:00,63.5,49.7,30.36,ESE,113,0.0,3.1,61,0.00,,,0.00,WUHU216HW,2013-10-09 15:17:00,
2013-10-09 11:22:00,63.6,49.9,30.36,ESE,113,0.0,3.1,61,0.00,,,0.00,WUHU216HW,2013-10-09 15:22:00,
2013-10-09 11:27:00,64.2,50.0,30.36,South,180,0.0,0.0,60,0.00,,,0.00,WUHU216HW,2013-10-09 15:27:00,
2013-10-09 11:32:00,64.7,50.0,30.36,South,180,0.0,0.0,59,0.00,,,0.00,WUHU216HW,2013-10-09 15:32:00,
2013-10-09 11:37:00,64.9,49.7,30.36,South,180,0.0,2.2,58,0.00,,,0.00,WUHU216HW,2013-10-09 15:37:00,
2013-10-09 11:42:00,64.9,48.7,30.36,SSW,203,3.8,3.8,56,0.00,,,0.00,WUHU216HW,2013-10-09 15:42:00,
2013-10-09 11:47:00,64.9,48.2,30.36,SSW,203,4.0,4.0,55,0.00,,,0.00,WUHU216HW,2013-10-09 15:47:00,
2013-10-09 11:52:00,64.9,48.2,30.36,SSW,203,0.0,4.2,55,0.00,,,0.00,WUHU216HW,2013-10-09 15:52:00,
2013-10-09 11:57:00,64.9,48.2,30.36,South,180,3.1,4.2,55,0.00,,,0.00,WUHU216HW,2013-10-09 15:57:00,
2013-10-09 12:02:00,65.1,47.9,30.36,SSW,203,3.8,3.8,54,0.00,,,0.00,WUHU216HW,2013-10-09 16:02:00,
2013-10-09 12:07:00,65.3,48.1,30.35,South,180,0.0,3.8,54,0.00,,,0.00,WUHU216HW,2013-10-09 16:07:00,
2013-10-09 12:49:00,68.1,48.9,30.34,SSW,203,4.2,4.2,50,0.00,,,0.00,WUHU216HW,2013-10-09 16:49:00,
2013-10-09 12:54:00,68.1,48.9,30.34,ENE,68,2.9,4.2,50,0.00,,,0.00,WUHU216HW,2013-10-09 16:54:00,
2013-10-09 12:59:00,68.1,48.9,30.34,ESE,113,0.0,4.2,50,0.00,,,0.00,WUHU216HW,2013-10-09 16:59:00,
2013-10-09 13:04:00,68.3,48.4,30.34,South,180,0.0,4.0,49,0.00,,,0.00,WUHU216HW,2013-10-09 17:04:00,
2013-10-09 13:09:00,68.1,47.7,30.34,SSW,203,2.4,4.0,48,0.00,,,0.00,WUHU216HW,2013-10-09 17:09:00,
2013-10-09 13:14:00,68.1,48.3,30.34,ESE,113,0.0,2.9,49,0.00,,,0.00,WUHU216HW,2013-10-09 17:14:00,
2013-10-09 13:19:00,68.3,47.2,30.34,SE,135,4.4,4.4,47,0.00,,,0.00,WUHU216HW,2013-10-09 17:19:00,
2013-10-09 13:24:00,68.7,47.6,30.34,SE,135,2.4,4.4,47,0.00,,,0.00,WUHU216HW,2013-10-09 17:24:00,
2013-10-09 13:29:00,68.9,47.1,30.34,SSW,203,0.6,2.4,46,0.00,,,0.00,WUHU216HW,2013-10-09 17:29:00,
2013-10-09 13:34:00,69.0,47.9,30.33,SE,135,0.0,2.4,47,0.00,,,0.00,WUHU216HW,2013-10-09 17:34:00,
2013-10-09 13:39:00,69.9,48.1,30.33,South,180,2.4,3.5,46,0.00,,,0.00,WUHU216HW,2013-10-09 17:39:00,
2013-10-09 13:44:00,70.1,48.3,30.32,ESE,113,3.3,3.5,46,0.00,,,0.00,WUHU216HW,2013-10-09 17:44:00,
2013-10-09 13:49:00,70.3,47.8,30.32,SSE,158,0.6,3.5,45,0.00,,,0.00,WUHU216HW,2013-10-09 17:49:00,
2013-10-09 13:54:00,70.7,48.2,30.32,SE,135,0.0,8.7,45,0.00,,,0.00,WUHU216HW,2013-10-09 17:54:00,
2013-10-09 13:59:00,71.4,49.1,30.31,North,0,0.0,8.7,46,0.00,,,0.00,WUHU216HW,2013-10-09 17:59:00,
2013-10-09 14:04:00,72.5,48.6,30.32,NNE,23,0.0,0.8,43,0.00,,,0.00,WUHU216HW,2013-10-09 18:04:00,
2013-10-09 14:09:00,72.6,48.2,30.31,SE,135,2.2,2.9,42,0.00,,,0.00,WUHU216HW,2013-10-09 18:09:00,
2013-10-09 14:14:00,72.6,48.2,30.31,ESE,113,2.6,2.9,42,0.00,,,0.00,WUHU216HW,2013-10-09 18:14:00,
2013-10-09 14:19:00,72.5,48.0,30.31,SSE,158,0.0,2.6,42,0.00,,,0.00,WUHU216HW,2013-10-09 18:19:00,
2013-10-09 14:24:00,72.3,47.2,30.31,ENE,68,0.8,3.5,41,0.00,,,0.00,WUHU216HW,2013-10-09 18:24:00,
2013-10-09 14:29:00,72.5,47.4,30.31,ESE,113,0.6,3.5,41,0.00,,,0.00,WUHU216HW,2013-10-09 18:29:00,
2013-10-09 14:34:00,72.6,48.2,30.31,ENE,68,0.0,3.3,42,0.00,,,0.00,WUHU216HW,2013-10-09 18:34:00,
2013-10-09 14:39:00,73.7,48.5,30.31,SE,135,0.0,2.0,41,0.00,,,0.00,WUHU216HW,2013-10-09 18:39:00,
2013-10-09 14:44:00,74.4,49.2,30.30,NE,45,0.0,2.0,41,0.00,,,0.00,WUHU216HW,2013-10-09 18:44:00,
2013-10-09 14:49:00,74.8,50.7,30.30,West,270,0.0,0.0,43,0.00,,,0.00,WUHU216HW,2013-10-09 18:49:00,
2013-10-09 14:54:00,75.7,52.2,30.30,North,0,0.0,1.1,44,0.00,,,0.00,WUHU216HW,2013-10-09 18:54:00,
2013-10-09 14:59:00,76.2,52.7,30.30,WNW,293,0.6,3.8,44,0.00,,,0.00,WUHU216HW,2013-10-09 18:59:00,
2013-10-09 15:04:00,76.4,52.8,30.30,North,0,0.6,3.8,44,0.00,,,0.00,WUHU216HW,2013-10-09 19:04:00,
2013-10-09 15:09:00,77.3,53.6,30.29,NNW,338,0.0,1.1,44,0.00,,,0.00,WUHU216HW,2013-10-09 19:09:00,
2013-10-09 15:14:00,77.7,53.9,30.29,North,0,2.2,2.2,44,0.00,,,0.00,WUHU216HW,2013-10-09 19:14:00,
2013-10-09 15:19:00,78.4,54.0,30.29,NNW,338,0.6,2.2,43,0.00,,,0.00,WUHU216HW,2013-10-09 19:19:00,
2013-10-09 15:24:00,78.9,54.5,30.29,West,270,0.0,0.6,43,0.00,,,0.00,WUHU216HW,2013-10-09 19:24:00,
2013-10-09 15:29:00,78.9,53.9,30.29,SW,225,0.0,0.0,42,0.00,,,0.00,WUHU216HW,2013-10-09 19:29:00,
2013-10-09 15:34:00,79.1,54.6,30.29,NW,315,0.0,0.0,43,0.00,,,0.00,WUHU216HW,2013-10-09 19:34:00,
2013-10-09 15:39:00,79.5,54.3,30.29,North,0,2.4,3.1,42,0.00,,,0.00,WUHU216HW,2013-10-09 19:39:00,
2013-10-09 15:44:00,79.8,54.7,30.29,North,0,2.4,3.1,42,0.00,,,0.00,WUHU216HW,2013-10-09 19:44:00,
2013-10-09 15:49:00,80.0,54.4,30.29,NNW,338,0.8,2.4,42,0.00,,,0.00,WUHU216HW,2013-10-09 19:49:00,
2013-10-09 15:54:00,80.2,55.0,30.29,North,0,0.0,0.8,42,0.00,,,0.00,WUHU216HW,2013-10-09 19:54:00,
2013-10-09 15:59:00,80.2,55.0,30.29,North,0,1.3,1.3,42,0.00,,,0.00,WUHU216HW,2013-10-09 19:59:00,
2013-10-09 16:04:00,80.2,55.0,30.29,NNW,338,0.0,1.3,42,0.00,,,0.00,WUHU216HW,2013-10-09 20:04:00,
2013-10-09 18:28:00,75.9,54.2,30.26,North,0,0.0,0.0,47,0.00,,,0.00,WUHU216HW,2013-10-09 22:28:00,
2013-10-09 18:33:00,75.0,53.9,30.26,North,0,0.0,0.0,48,0.00,,,0.00,WUHU216HW,2013-10-09 22:33:00,
2013-10-09 18:38:00,74.3,53.8,30.26,North,0,0.0,0.0,49,0.00,,,0.00,WUHU216HW,2013-10-09 22:38:00,
2013-10-09 18:43:00,73.7,53.9,30.26,North,0,0.0,0.0,50,0.00,,,0.00,WUHU216HW,2013-10-09 22:43:00,
2013-10-09 18:48:00,72.5,53.2,30.26,North,0,0.0,0.0,51,0.00,,,0.00,WUHU216HW,2013-10-09 22:48:00,
2013-10-09 18:53:00,71.7,53.1,30.26,North,0,0.0,0.0,52,0.00,,,0.00,WUHU216HW,2013-10-09 22:53:00,
2013-10-09 18:58:00,71.2,53.1,30.26,North,0,0.0,0.0,53,0.00,,,0.00,WUHU216HW,2013-10-09 22:58:00,
2013-10-09 19:03:00,70.5,53.0,30.26,North,0,0.0,0.0,54,0.00,,,0.00,WUHU216HW,2013-10-09 23:03:00,
2013-10-09 19:08:00,69.9,53.0,30.26,North,0,0.0,0.0,55,0.00,,,0.00,WUHU216HW,2013-10-09 23:08:00,
2013-10-09 19:13:00,69.6,53.2,30.26,North,0,0.0,0.0,56,0.00,,,0.00,WUHU216HW,2013-10-09 23:13:00,
2013-10-09 19:18:00,68.5,52.6,30.26,North,0,0.0,0.0,57,0.00,,,0.00,WUHU216HW,2013-10-09 23:18:00,
2013-10-09 19:23:00,68.1,52.7,30.26,North,0,0.0,0.0,58,0.00,,,0.00,WUHU216HW,2013-10-09 23:23:00,
2013-10-09 19:28:00,67.6,52.4,30.26,North,0,0.0,0.0,58,0.00,,,0.00,WUHU216HW,2013-10-09 23:28:00,
2013-10-09 19:33:00,66.9,52.1,30.26,North,0,0.0,0.0,59,0.00,,,0.00,WUHU216HW,2013-10-09 23:33:00,
2013-10-09 19:38:00,66.5,52.3,30.26,North,0,0.0,0.0,60,0.00,,,0.00,WUHU216HW,2013-10-09 23:38:00,
2013-10-09 19:43:00,65.6,52.2,30.26,North,0,0.0,0.0,61,0.00,,,0.00,WUHU216HW,2013-10-09 23:43:00,
2013-10-09 19:48:00,65.3,51.9,30.26,North,0,0.0,0.0,62,0.00,,,0.00,WUHU216HW,2013-10-09 23:48:00,
2013-10-09 19:53:00,65.1,52.1,30.26,North,0,0.0,0.0,63,0.00,,,0.00,WUHU216HW,2013-10-09 23:53:00,
2013-10-09 19:58:00,64.7,51.8,30.26,North,0,0.0,0.0,63,0.00,,,0.00,WUHU216HW,2013-10-09 23:58:00,
2013-10-09 20:03:00,64.2,51.7,30.26,North,0,0.0,0.0,64,0.00,,,0.00,WUHU216HW,2013-10-10 00:03:00,
2013-10-09 20:08:00,63.6,51.6,30.26,North,0,0.0,0.0,65,0.00,,,0.00,WUHU216HW,2013-10-10 00:08:00,
2013-10-09 20:13:00,63.3,51.3,30.26,North,0,0.0,0.0,65,0.00,,,0.00,WUHU216HW,2013-10-10 00:13:00,
2013-10-09 20:18:00,62.9,51.3,30.26,North,0,0.0,0.0,66,0.00,,,0.00,WUHU216HW,2013-10-10 00:18:00,
2013-10-09 20:23:00,62.6,51.0,30.26,North,0,0.0,0.0,66,0.00,,,0.00,WUHU216HW,2013-10-10 00:23:00,
2013-10-09 20:28:00,62.4,51.2,30.26,North,0,0.0,0.0,67,0.00,,,0.00,WUHU216HW,2013-10-10 00:28:00,
2013-10-09 20:33:00,61.8,51.2,30.26,North,0,0.0,0.0,68,0.00,,,0.00,WUHU216HW,2013-10-10 00:33:00,
2013-10-09 20:38:00,61.5,50.9,30.26,North,0,0.0,0.0,68,0.00,,,0.00,WUHU216HW,2013-10-10 00:38:00,
2013-10-09 20:43:00,61.1,50.5,30.26,North,0,0.0,0.0,68,0.00,,,0.00,WUHU216HW,2013-10-10 00:43:00,
2013-10-09 20:48:00,60.9,50.8,30.26,North,0,0.0,0.0,69,0.00,,,0.00,WUHU216HW,2013-10-10 00:48:00,
2013-10-09 20:53:00,60.4,50.3,30.26,North,0,0.0,0.0,69,0.00,,,0.00,WUHU216HW,2013-10-10 00:53:00,
2013-10-09 20:58:00,60.0,49.9,30.26,North,0,0.0,0.0,69,0.00,,,0.00,WUHU216HW,2013-10-10 00:58:00,
2013-10-09 21:03:00,59.5,49.4,30.26,North,0,0.0,0.0,69,0.00,,,0.00,WUHU216HW,2013-10-10 01:03:00,
2013-10-09 21:08:00,58.8,49.1,30.26,North,0,0.0,0.0,70,0.00,,,0.00,WUHU216HW,2013-10-10 01:08:00,
2013-10-09 21:13:00,58.4,49.1,30.26,North,0,0.0,0.0,71,0.00,,,0.00,WUHU216HW,2013-10-10 01:13:00,
2013-10-09 21:18:00,58.2,48.9,30.26,North,0,0.0,0.0,71,0.00,,,0.00,WUHU216HW,2013-10-10 01:18:00,
2013-10-09 21:23:00,58.1,48.7,30.26,North,0,0.0,0.0,71,0.00,,,0.00,WUHU216HW,2013-10-10 01:23:00,
2013-10-09 21:28:00,57.9,48.5,30.26,North,0,0.0,0.0,71,0.00,,,0.00,WUHU216HW,2013-10-10 01:28:00,
2013-10-09 21:33:00,57.9,48.5,30.26,North,0,0.0,0.0,71,0.00,,,0.00,WUHU216HW,2013-10-10 01:33:00,
2013-10-09 21:38:00,57.9,48.9,30.26,North,0,0.0,0.0,72,0.00,,,0.00,WUHU216HW,2013-10-10 01:38:00,
2013-10-09 21:43:00,57.7,48.7,30.26,North,0,0.0,0.0,72,0.00,,,0.00,WUHU216HW,2013-10-10 01:43:00,
2013-10-09 21:48:00,57.7,48.7,30.26,North,0,0.0,0.0,72,0.00,,,0.00,WUHU216HW,2013-10-10 01:48:00,
2013-10-09 21:53:00,57.5,48.9,30.26,North,0,0.0,0.0,73,0.00,,,0.00,WUHU216HW,2013-10-10 01:53:00,
2013-10-09 21:58:00,57.5,48.9,30.26,North,0,0.0,0.0,73,0.00,,,0.00,WUHU216HW,2013-10-10 01:58:00,
2013-10-09 22:03:00,57.3,48.7,30.26,North,0,0.0,0.0,73,0.00,,,0.00,WUHU216HW,2013-10-10 02:03:00,
2013-10-09 22:08:00,57.0,48.7,30.26,North,0,0.0,0.0,74,0.00,,,0.00,WUHU216HW,2013-10-10 02:08:00,
2013-10-09 22:13:00,57.0,48.7,30.26,North,0,0.0,0.0,74,0.00,,,0.00,WUHU216HW,2013-10-10 02:13:00,
2013-10-09 22:18:00,56.8,48.5,30.26,North,0,0.0,0.0,74,0.00,,,0.00,WUHU216HW,2013-10-10 02:18:00,
2013-10-09 22:23:00,56.6,48.0,30.26,North,0,0.0,0.0,73,0.00,,,0.00,WUHU216HW,2013-10-10 02:23:00,
2013-10-09 22:28:00,56.3,47.7,30.26,North,0,0.0,0.0,73,0.00,,,0.00,WUHU216HW,2013-10-10 02:28:00,
2013-10-09 22:33:00,55.9,47.7,30.27,North,0,0.0,0.0,74,0.00,,,0.00,WUHU216HW,2013-10-10 02:33:00,
2013-10-09 22:38:00,55.5,47.3,30.26,North,0,0.0,0.0,74,0.00,,,0.00,WUHU216HW,2013-10-10 02:38:00,
2013-10-09 22:43:00,55.4,47.5,30.27,North,0,0.0,0.0,75,0.00,,,0.00,WUHU216HW,2013-10-10 02:43:00,